Time;durP1;ratioP1;P1;durP2;ratioP2;P2;SDS_P1;SDS_P2;PMS_P1;PMS_P2;Temp;Humidity;BMP_temperature;BMP_pressure;BME280_temperature;BME280_humidity;BME280_pressure;Samples;Min_cycle;Max_cycle;Signal;HPM_P1;HPM_P2
2023/09/20 00:01:02;;;;;;;;;;;;;;;21.54;28.94;98087.13;4997854;28;916;-78
2023/09/20 00:03:28;;;;;;;;;;;;;;;21.65;28.83;98089.69;4997457;28;917;-78
2023/09/20 00:05:54;;;;;;;;;;;;;;;21.53;28.84;98087.56;5014069;28;1914;-77
2023/09/20 00:08:20;;;;;;;;;;;;;;;21.31;29.18;98090.13;5027067;28;1410;-77
2023/09/20 00:10:45;;;;;;;;;;;;;;;21.18;29.33;98087.16;5051787;28;1137;-77
2023/09/20 00:13:14;;;;;;;;;;;;;;;21.60;28.94;98101.53;5034343;28;1124;-78
2023/09/20 00:15:45;;;;;;;;;;;;;;;21.47;28.91;98095.00;5034899;28;775;-77
2023/09/20 00:18:11;;;;;;;;;;;;;;;21.32;29.28;98088.88;5034180;28;838;-77
2023/09/20 00:20:36;;;;;;;;;;;;;;;21.41;28.98;98096.78;5034657;28;1093;-78
2023/09/20 00:23:03;;;;;;;;;;;;;;;21.38;29.33;98094.81;5051419;28;1130;-77
2023/09/20 00:25:29;;;;;;;;;;;;;;;21.71;28.52;98096.44;5051158;28;1910;-77
2023/09/20 00:27:54;;;;;;;;;;;;;;;21.50;28.79;98099.75;5034727;28;763;-77
2023/09/20 00:30:20;;;;;;;;;;;;;;;21.62;28.73;98093.41;5034434;28;806;-77
2023/09/20 00:32:46;;;;;;;;;;;;;;;21.32;29.29;98089.69;5034813;28;1265;-78
2023/09/20 00:35:12;;;;;;;;;;;;;;;21.59;28.87;98088.63;5034756;28;1303;-77
2023/09/20 00:37:38;;;;;;;;;;;;;;;21.65;28.64;98095.34;5018085;28;1134;-78
2023/09/20 00:40:04;;;;;;;;;;;;;;;21.65;28.85;98089.69;5034542;28;747;-77
2023/09/20 00:42:31;;;;;;;;;;;;;;;21.81;28.58;98086.03;5179487;22;3539;-75
2023/09/20 00:44:57;;;;;;;;;;;;;;;22.54;29.16;98087.31;5035631;28;1909;-75
2023/09/20 00:47:26;;;;;;;;;;;;;;;22.38;29.71;98086.56;5034230;28;953;-75
2023/09/20 00:49:52;;;;;;;;;;;;;;;22.20;29.96;98087.84;5034798;28;777;-75
2023/09/20 00:52:18;;;;;;;;;;;;;;;21.70;30.72;98086.31;5017682;28;1103;-75
2023/09/20 00:54:43;;;;;;;;;;;;;;;21.78;30.39;98082.06;5001228;28;719;-75
2023/09/20 00:57:09;;;;;;;;;;;;;;;21.65;30.45;98088.88;5001284;28;1147;-75
2023/09/20 00:59:35;;;;;;;;;;;;;;;21.58;30.47;98089.88;5017630;28;785;-77
2023/09/20 01:02:01;;;;;;;;;;;;;;;21.42;30.41;98092.72;5017538;28;914;-77
2023/09/20 01:04:28;;;;;;;;;;;;;;;21.45;30.47;98086.13;5001325;28;1240;-78
2023/09/20 01:06:53;;;;;;;;;;;;;;;21.25;30.34;98089.84;5017547;28;1969;-78
2023/09/20 01:09:22;;;;;;;;;;;;;;;21.28;30.29;98085.31;5034195;28;687;-78
2023/09/20 01:11:47;;;;;;;;;;;;;;;21.26;30.28;98085.75;5033868;28;978;-77
2023/09/20 01:14:13;;;;;;;;;;;;;;;21.52;29.91;98086.78;4984979;28;1473;-77
2023/09/20 01:16:39;;;;;;;;;;;;;;;21.44;29.69;98084.56;4955713;28;1179;-77
2023/09/20 01:19:06;;;;;;;;;;;;;;;21.25;29.85;98089.84;4923903;28;1343;-77
2023/09/20 01:21:39;;;;;;;;;;;;;;;21.20;29.83;98076.22;4955925;28;779;-77
2023/09/20 01:24:04;;;;;;;;;;;;;;;21.41;29.48;98085.47;4939921;28;1139;-78
2023/09/20 01:26:30;;;;;;;;;;;;;;;21.59;29.27;98082.97;4939584;29;1894;-77
2023/09/20 01:28:56;;;;;;;;;;;;;;;21.30;29.56;98085.72;4941718;28;1162;-78
2023/09/20 01:31:22;;;;;;;;;;;;;;;21.41;28.88;98088.28;4943564;28;1413;-78
2023/09/20 01:33:48;;;;;;;;;;;;;;;21.31;29.28;98084.47;4959246;28;813;-77
2023/09/20 01:36:13;;;;;;;;;;;;;;;21.39;29.07;98082.25;4959333;28;1072;-78
2023/09/20 01:38:39;;;;;;;;;;;;;;;21.31;28.90;98075.97;4943303;28;1507;-78
2023/09/20 01:41:05;;;;;;;;;;;;;;;21.16;29.35;98080.34;4936303;29;1242;-77
2023/09/20 01:43:30;;;;;;;;;;;;;;;21.29;28.92;98072.75;4933900;29;1079;-77
2023/09/20 01:45:56;;;;;;;;;;;;;;;21.12;29.32;98079.63;4940103;29;1978;-77
2023/09/20 01:48:22;;;;;;;;;;;;;;;21.41;28.78;98068.47;5002252;28;781;-77
2023/09/20 01:50:50;;;;;;;;;;;;;;;21.49;28.33;98069.88;5000988;28;1272;-78
2023/09/20 01:53:15;;;;;;;;;;;;;;;21.58;28.40;98067.22;5001219;28;746;-78
2023/09/20 01:55:42;;;;;;;;;;;;;;;21.39;28.55;98070.94;5001176;28;846;-77
2023/09/20 01:58:12;;;;;;;;;;;;;;;21.61;28.17;98063.50;5001352;28;1202;-78
2023/09/20 02:00:40;;;;;;;;;;;;;;;21.62;27.91;98056.59;5001058;28;904;-78
2023/09/20 02:03:08;;;;;;;;;;;;;;;21.38;28.38;98064.47;4997501;28;1204;-78
2023/09/20 02:05:33;;;;;;;;;;;;;;;21.13;28.75;98059.38;4997604;28;1899;-77
2023/09/20 02:07:59;;;;;;;;;;;;;;;21.11;28.75;98067.53;4997391;28;1234;-78
2023/09/20 02:10:24;;;;;;;;;;;;;;;21.37;28.33;98062.88;4981309;28;1143;-78
2023/09/20 02:12:53;;;;;;;;;;;;;;;21.24;28.49;98059.94;5029596;28;885;-77
2023/09/20 02:15:19;;;;;;;;;;;;;;;21.36;28.28;98060.50;5036911;28;1091;-78
2023/09/20 02:17:45;;;;;;;;;;;;;;;21.32;28.28;98055.72;5036684;28;784;-77
2023/09/20 02:20:11;;;;;;;;;;;;;;;21.32;28.00;98054.94;5020316;28;995;-78
2023/09/20 02:22:37;;;;;;;;;;;;;;;21.26;28.17;98063.13;5023248;28;1118;-78
2023/09/20 02:25:05;;;;;;;;;;;;;;;21.28;28.18;98060.63;5039998;28;1965;-77
2023/09/20 02:27:31;;;;;;;;;;;;;;;21.26;28.08;98062.34;5023717;28;906;-77
2023/09/20 02:29:57;;;;;;;;;;;;;;;20.86;28.80;98061.66;5039838;28;1414;-78
2023/09/20 02:32:23;;;;;;;;;;;;;;;21.19;28.35;98057.66;5039937;28;799;-78
2023/09/20 02:34:49;;;;;;;;;;;;;;;21.14;28.33;98054.53;5056387;28;767;-78
2023/09/20 02:37:15;;;;;;;;;;;;;;;21.30;28.18;98052.56;5043168;28;1105;-77
2023/09/20 02:39:40;;;;;;;;;;;;;;;21.29;28.01;98055.78;5059086;28;914;-78
2023/09/20 02:42:07;;;;;;;;;;;;;;;21.49;27.49;98045.19;5026609;28;1205;-78
2023/09/20 02:44:32;;;;;;;;;;;;;;;21.39;27.91;98051.13;5042806;28;1099;-78
2023/09/20 02:46:59;;;;;;;;;;;;;;;21.37;27.91;98045.91;5059633;28;1988;-77
2023/09/20 02:49:24;;;;;;;;;;;;;;;21.51;27.52;98056.88;5035813;28;902;-77
2023/09/20 02:51:51;;;;;;;;;;;;;;;21.35;27.78;98041.91;5003210;28;1236;-78
2023/09/20 02:54:17;;;;;;;;;;;;;;;21.07;28.22;98055.50;4988768;28;894;-78
2023/09/20 02:56:44;;;;;;;;;;;;;;;20.98;28.53;98047.59;4997075;28;801;-77
2023/09/20 02:59:10;;;;;;;;;;;;;;;21.30;28.03;98054.59;4980437;28;1131;-78
2023/09/20 03:01:36;;;;;;;;;;;;;;;21.27;27.82;98053.38;4996859;28;1205;-77
2023/09/20 03:04:01;;;;;;;;;;;;;;;21.05;28.21;98058.78;4996719;28;924;-77
2023/09/20 03:06:29;;;;;;;;;;;;;;;21.33;27.93;98057.31;4980135;28;1915;-77
2023/09/20 03:08:55;;;;;;;;;;;;;;;21.37;27.96;98062.09;4976922;28;1072;-78
2023/09/20 03:11:21;;;;;;;;;;;;;;;21.33;27.86;98057.31;4958182;28;1248;-77
2023/09/20 03:13:47;;;;;;;;;;;;;;;21.27;27.88;98061.09;4957714;28;1167;-77
2023/09/20 03:16:17;;;;;;;;;;;;;;;21.32;27.81;98061.38;4957740;28;1159;-77
2023/09/20 03:18:42;;;;;;;;;;;;;;;21.24;28.14;98059.13;4957621;28;1181;-77
2023/09/20 03:21:10;;;;;;;;;;;;;;;20.88;28.50;98059.16;4992433;28;1336;-77
2023/09/20 03:23:37;;;;;;;;;;;;;;;21.27;27.96;98064.72;4995901;28;1107;-77
2023/09/20 03:26:04;;;;;;;;;;;;;;;21.36;27.68;98061.31;4995779;28;1906;-77
2023/09/20 03:28:32;;;;;;;;;;;;;;;21.27;28.13;98055.44;4995887;28;1273;-77
2023/09/20 03:31:02;;;;;;;;;;;;;;;21.47;27.40;98056.16;4996189;28;1111;-77
2023/09/20 03:33:31;;;;;;;;;;;;;;;21.43;27.79;98049.78;4995544;28;972;-77
2023/09/20 03:36:09;;;;;;;;;;;;;;;21.49;27.68;98052.88;4995911;28;1477;-77
2023/09/20 03:38:36;;;;;;;;;;;;;;;21.09;28.42;98064.34;4994277;28;1120;-77
2023/09/20 03:41:06;;;;;;;;;;;;;;;21.36;27.55;98061.31;5015123;28;1166;-77
2023/09/20 03:43:33;;;;;;;;;;;;;;;21.20;28.15;98059.22;5009358;28;1367;-78
2023/09/20 03:46:01;;;;;;;;;;;;;;;21.44;27.70;98061.91;5015390;28;1906;-77
2023/09/20 03:48:27;;;;;;;;;;;;;;;21.49;27.66;98058.53;5015085;28;1409;-77
2023/09/20 03:50:53;;;;;;;;;;;;;;;21.14;28.03;98055.34;5015051;28;1186;-77
2023/09/20 03:53:18;;;;;;;;;;;;;;;21.42;27.64;98053.88;5038106;28;1123;-77
2023/09/20 03:55:48;;;;;;;;;;;;;;;21.16;27.85;98057.72;5039644;28;1345;-78
2023/09/20 03:58:15;;;;;;;;;;;;;;;21.11;28.23;98061.88;5039178;28;1234;-77
2023/09/20 04:00:42;;;;;;;;;;;;;;;21.24;27.99;98062.78;5022901;28;1237;-77
2023/09/20 04:03:08;;;;;;;;;;;;;;;21.43;27.42;98061.13;5018199;28;1091;-77
2023/09/20 04:05:35;;;;;;;;;;;;;;;21.12;28.21;98069.13;5014846;28;1913;-77
2023/09/20 04:08:03;;;;;;;;;;;;;;;21.19;27.86;98062.47;4998512;28;1186;-78
2023/09/20 04:10:29;;;;;;;;;;;;;;;21.10;28.16;98059.50;4998894;28;989;-77
2023/09/20 04:12:55;;;;;;;;;;;;;;;21.38;27.83;98058.81;5014965;28;1146;-78
2023/09/20 04:15:20;;;;;;;;;;;;;;;21.05;28.50;98069.28;4982780;28;946;-77
2023/09/20 04:17:48;;;;;;;;;;;;;;;21.31;27.67;98065.47;4998439;28;1032;-76
2023/09/20 04:20:13;;;;;;;;;;;;;;;21.45;27.72;98057.84;4998828;28;1143;-77
2023/09/20 04:22:41;;;;;;;;;;;;;;;21.16;28.05;98058.53;4982165;28;1141;-77
2023/09/20 04:25:10;;;;;;;;;;;;;;;21.41;27.49;98059.97;4982103;28;1977;-77
2023/09/20 04:27:36;;;;;;;;;;;;;;;21.59;27.33;98060.31;4982741;28;1227;-77
2023/09/20 04:30:03;;;;;;;;;;;;;;;21.32;27.74;98055.72;4982084;28;1171;-77
2023/09/20 04:32:31;;;;;;;;;;;;;;;21.39;27.61;98059.59;4982502;28;1131;-77
2023/09/20 04:34:57;;;;;;;;;;;;;;;20.64;27.67;97943.38;4999040;28;1365;-77
2023/09/20 04:37:25;;;;;;;;;;;;;;;21.06;27.99;98051.88;5034313;28;1070;-77
2023/09/20 04:39:52;;;;;;;;;;;;;;;21.04;28.20;98057.19;5034615;28;1175;-78
2023/09/20 04:42:18;;;;;;;;;;;;;;;21.33;27.66;98057.31;5019299;28;1322;-77
2023/09/20 04:44:44;;;;;;;;;;;;;;;21.23;28.23;98064.00;5001258;28;1167;-77
2023/09/20 04:47:10;;;;;;;;;;;;;;;21.07;28.16;98059.13;5017847;28;2035;-77
2023/09/20 04:49:37;;;;;;;;;;;;;;;21.14;28.15;98058.16;5001219;28;1391;-78
2023/09/20 04:52:05;;;;;;;;;;;;;;;21.38;27.61;98053.16;5017956;28;1192;-77
2023/09/20 04:54:31;;;;;;;;;;;;;;;21.24;27.82;98068.44;4985271;28;1441;-77
2023/09/20 04:56:56;;;;;;;;;;;;;;;21.19;28.12;98063.31;4978517;28;1260;-77
2023/09/20 04:59:23;;;;;;;;;;;;;;;20.94;28.35;98063.09;4978797;28;1097;-77
2023/09/20 05:01:49;;;;;;;;;;;;;;;21.04;28.14;98056.41;4962912;28;1177;-77
2023/09/20 05:04:15;;;;;;;;;;;;;;;21.43;27.75;98055.44;4997300;28;916;-77
2023/09/20 05:06:41;;;;;;;;;;;;;;;21.29;27.97;98056.56;4950181;28;1982;-77
2023/09/20 05:09:07;;;;;;;;;;;;;;;21.26;28.17;98062.34;4963132;28;1255;-77
2023/09/20 05:11:33;;;;;;;;;;;;;;;21.18;28.13;98064.53;4963065;28;1196;-77
2023/09/20 05:13:58;;;;;;;;;;;;;;;21.27;27.91;98059.06;4947050;28;1077;-78
2023/09/20 05:16:24;;;;;;;;;;;;;;;21.12;28.08;98063.47;4978383;28;1297;-77
2023/09/20 05:18:51;;;;;;;;;;;;;;;21.20;28.26;98067.72;4982252;28;1085;-77
2023/09/20 05:21:16;;;;;;;;;;;;;;;21.40;28.03;98061.19;4998461;28;1182;-77
2023/09/20 05:23:42;;;;;;;;;;;;;;;21.51;27.68;98073.88;4998708;28;1276;-78
2023/09/20 05:26:07;;;;;;;;;;;;;;;21.43;27.65;98065.97;4998431;28;1958;-78
2023/09/20 05:28:35;;;;;;;;;;;;;;;21.57;27.78;98071.28;5008723;28;1126;-77
2023/09/20 05:31:02;;;;;;;;;;;;;;;21.44;27.85;98068.38;5001820;28;903;-77
2023/09/20 05:33:30;;;;;;;;;;;;;;;21.52;27.73;98064.13;4962631;28;1068;-77
2023/09/20 05:35:57;;;;;;;;;;;;;;;21.23;28.33;98075.31;4931192;28;1586;-77
2023/09/20 05:38:24;;;;;;;;;;;;;;;21.35;27.88;98081.53;4962760;28;1016;-77
2023/09/20 05:40:49;;;;;;;;;;;;;;;21.24;28.19;98082.59;4947442;29;1350;-78
2023/09/20 05:43:16;;;;;;;;;;;;;;;21.40;27.85;98090.31;4937956;28;1085;-77
2023/09/20 05:45:41;;;;;;;;;;;;;;;21.26;28.19;98091.41;4962477;28;1918;-77
2023/09/20 05:48:10;;;;;;;;;;;;;;;21.30;28.05;98086.50;4978149;28;1096;-77
2023/09/20 05:50:35;;;;;;;;;;;;;;;21.09;28.24;98087.00;4962515;28;1182;-78
2023/09/20 05:53:08;;;;;;;;;;;;;;;21.10;28.48;98084.94;4978559;28;1027;-77
2023/09/20 05:55:39;;;;;;;;;;;;;;;21.45;27.68;98091.81;4978612;28;969;-77
2023/09/20 05:58:05;;;;;;;;;;;;;;;21.39;28.24;98083.03;4978024;28;959;-78
2023/09/20 06:00:30;;;;;;;;;;;;;;;21.36;28.02;98088.81;5013603;28;1062;-78
2023/09/20 06:02:59;;;;;;;;;;;;;;;21.16;28.50;98088.84;5017349;28;1039;-77
2023/09/20 06:05:25;;;;;;;;;;;;;;;21.31;28.43;98099.41;5052582;28;1977;-77
2023/09/20 06:07:51;;;;;;;;;;;;;;;21.30;28.38;98094.22;5056923;28;1032;-77
2023/09/20 06:10:17;;;;;;;;;;;;;;;21.40;28.18;98095.16;5057014;28;958;-77
2023/09/20 06:12:42;;;;;;;;;;;;;;;21.11;28.69;98101.47;5057083;28;1026;-77
2023/09/20 06:15:08;;;;;;;;;;;;;;;20.87;29.04;98097.16;5055651;28;949;-77
2023/09/20 06:17:34;;;;;;;;;;;;;;;21.23;28.36;98108.47;5041391;28;1044;-77
2023/09/20 06:20:00;;;;;;;;;;;;;;;21.19;28.68;98102.91;5019925;28;970;-78
2023/09/20 06:22:28;;;;;;;;;;;;;;;21.58;27.97;98106.84;5020519;28;959;-77
2023/09/20 06:24:56;;;;;;;;;;;;;;;21.11;28.56;98101.47;5020143;28;966;-77
2023/09/20 06:27:22;;;;;;;;;;;;;;;21.20;28.51;98115.81;5020397;28;1969;-77
2023/09/20 06:29:48;;;;;;;;;;;;;;;21.47;28.24;98120.47;5036839;28;938;-77
2023/09/20 06:32:15;;;;;;;;;;;;;;;21.62;28.20;98126.59;4987657;28;1127;-77
2023/09/20 06:34:41;;;;;;;;;;;;;;;21.33;28.42;98130.09;5004081;28;1033;-77
2023/09/20 06:37:07;;;;;;;;;;;;;;;20.90;29.14;98133.06;5036640;28;977;-77
2023/09/20 06:39:35;;;;;;;;;;;;;;;21.04;29.17;98129.94;5020612;28;908;-77
2023/09/20 06:42:01;;;;;;;;;;;;;;;21.00;28.92;98132.06;5019885;28;1124;-77
2023/09/20 06:44:27;;;;;;;;;;;;;;;21.00;29.33;98140.53;5016530;28;1099;-77
2023/09/20 06:46:52;;;;;;;;;;;;;;;21.44;28.33;98135.50;5000404;28;1972;-77
2023/09/20 06:49:18;;;;;;;;;;;;;;;21.44;28.27;98138.34;5000261;28;875;-77
2023/09/20 06:51:43;;;;;;;;;;;;;;;21.36;28.45;98139.75;5000038;28;1029;-77
2023/09/20 06:54:09;;;;;;;;;;;;;;;21.12;28.90;98147.53;5016187;28;893;-77
2023/09/20 06:56:37;;;;;;;;;;;;;;;21.35;28.61;98144.63;5016434;28;1005;-77
2023/09/20 06:59:03;;;;;;;;;;;;;;;21.32;29.02;98157.59;5016018;28;997;-77
2023/09/20 07:01:29;;;;;;;;;;;;;;;21.51;28.61;98143.84;5016562;28;1062;-77
2023/09/20 07:03:54;;;;;;;;;;;;;;;21.20;29.13;98155.44;5016132;28;1362;-77
2023/09/20 07:06:20;;;;;;;;;;;;;;;21.20;29.15;98155.44;5016386;28;1902;-76
2023/09/20 07:08:45;;;;;;;;;;;;;;;20.95;29.52;98158.03;5016340;28;1123;-76
2023/09/20 07:11:13;;;;;;;;;;;;;;;21.04;29.61;98158.22;5016198;28;964;-78
2023/09/20 07:13:38;;;;;;;;;;;;;;;20.99;29.51;98161.56;5016522;28;920;-79
2023/09/20 07:16:07;;;;;;;;;;;;;;;21.16;29.15;98157.56;5032781;28;1047;-78
2023/09/20 07:18:32;;;;;;;;;;;;;;;21.41;29.13;98153.41;5052738;28;888;-77
2023/09/20 07:20:58;;;;;;;;;;;;;;;21.57;28.66;98156.22;5053517;28;1078;-77
2023/09/20 07:23:23;;;;;;;;;;;;;;;21.50;28.70;98156.38;5037839;28;906;-77
2023/09/20 07:25:49;;;;;;;;;;;;;;;21.37;29.02;98153.47;5037448;28;1902;-78
2023/09/20 07:28:16;;;;;;;;;;;;;;;21.32;29.08;98151.16;5037882;28;1155;-77
2023/09/20 07:30:45;;;;;;;;;;;;;;;21.53;28.74;98155.53;5037860;28;948;-78
2023/09/20 07:33:11;;;;;;;;;;;;;;;21.37;29.13;98152.66;5037473;28;854;-78
2023/09/20 07:35:48;;;;;;;;;;;;;;;21.40;28.94;98151.78;5037575;28;979;-78
2023/09/20 07:41:12;;;;;;;;;;;;;;;21.42;28.99;98155.78;5015327;28;902;-77
2023/09/20 07:43:38;;;;;;;;;;;;;;;21.44;29.08;98153.28;4998752;28;1054;-77
2023/09/20 07:46:06;;;;;;;;;;;;;;;21.31;29.37;98156.03;5015336;28;1894;-77
2023/09/20 07:48:33;;;;;;;;;;;;;;;21.26;29.27;98167.84;5015640;28;976;-77
2023/09/20 07:50:59;;;;;;;;;;;;;;;21.47;28.92;98168.59;5015509;28;970;-77
2023/09/20 07:53:26;;;;;;;;;;;;;;;21.15;29.39;98170.09;5015002;28;950;-77
2023/09/20 07:55:58;;;;;;;;;;;;;;;21.37;29.21;98170.44;5015613;28;1017;-78
2023/09/20 07:58:23;;;;;;;;;;;;;;;21.17;29.39;98173.28;5015062;28;1051;-77
2023/09/20 08:00:51;;;;;;;;;;;;;;;21.33;29.11;98176.19;5015295;28;1023;-76
2023/09/20 08:03:18;;;;;;;;;;;;;;;21.33;29.19;98175.38;4999150;28;943;-77
2023/09/20 08:05:44;;;;;;;;;;;;;;;21.41;29.17;98171.16;4978491;28;1906;-77
2023/09/20 08:08:10;;;;;;;;;;;;;;;21.46;29.07;98172.69;4995215;28;1038;-77
2023/09/20 08:10:36;;;;;;;;;;;;;;;21.63;28.62;98176.31;4995571;28;996;-77
2023/09/20 08:13:03;;;;;;;;;;;;;;;21.32;29.17;98176.63;4979637;28;948;-78
2023/09/20 08:15:29;;;;;;;;;;;;;;;21.07;29.71;98179.97;4979594;28;1105;-76
2023/09/20 08:20:40;;;;;;;;;;;;;;;21.12;29.68;98159.66;5015121;28;1189;-77
2023/09/20 09:01:35;;;;;;;;;;;;;;;21.54;29.16;98182.59;5020083;28;990;-76
2023/09/20 09:04:01;;;;;;;;;;;;;;;21.51;29.08;98175.00;5017872;28;938;-78
2023/09/20 09:06:26;;;;;;;;;;;;;;;21.54;28.92;98174.88;5001168;28;1973;-77
2023/09/20 09:08:52;;;;;;;;;;;;;;;21.72;28.86;98165.97;5034073;28;965;-77
2023/09/20 09:11:18;;;;;;;;;;;;;;;21.66;28.91;98175.44;5017935;28;1002;-77
2023/09/20 09:13:43;;;;;;;;;;;;;;;21.42;29.36;98171.97;5001725;28;1092;-77
2023/09/20 09:16:09;;;;;;;;;;;;;;;21.39;29.32;98173.63;5034395;28;998;-77
2023/09/20 09:18:37;;;;;;;;;;;;;;;21.28;29.43;98173.84;5027781;28;1090;-77
2023/09/20 09:21:04;;;;;;;;;;;;;;;21.36;29.52;98168.06;5020956;28;1112;-77
2023/09/20 09:23:30;;;;;;;;;;;;;;;21.44;29.55;98175.13;5013842;28;1003;-78
2023/09/20 09:25:56;;;;;;;;;;;;;;;21.45;29.28;98166.22;4985853;28;1898;-77
2023/09/20 09:28:21;;;;;;;;;;;;;;;21.48;29.38;98161.72;5017316;28;1018;-77
2023/09/20 09:30:49;;;;;;;;;;;;;;;21.42;29.39;98164.25;5033780;28;1203;-77
2023/09/20 09:33:15;;;;;;;;;;;;;;;21.22;29.56;98164.28;5033775;28;1017;-77
2023/09/20 09:35:40;;;;;;;;;;;;;;;21.45;29.48;98135.09;5000971;28;1038;-77
2023/09/20 09:38:06;;;;;;;;;;;;;;;21.66;29.18;98150.75;5034056;28;1012;-77
2023/09/20 09:40:32;;;;;;;;;;;;;;;21.35;29.76;98155.13;5017341;28;1215;-77
2023/09/20 09:43:10;;;;;;;;;;;;;;;21.41;29.68;98153.41;5030196;28;1233;-77
2023/09/20 09:45:36;;;;;;;;;;;;;;;21.54;29.40;98157.09;4997465;28;1977;-77
2023/09/20 09:48:02;;;;;;;;;;;;;;;21.37;29.72;98164.00;4977811;28;1127;-77
2023/09/20 09:50:27;;;;;;;;;;;;;;;21.66;29.20;98158.44;4995194;28;1140;-77
2023/09/20 09:52:53;;;;;;;;;;;;;;;21.53;29.17;98164.00;5014186;28;979;-77
2023/09/20 09:55:18;;;;;;;;;;;;;;;21.33;29.55;98159.19;4997847;28;938;-77
2023/09/20 09:57:44;;;;;;;;;;;;;;;21.20;30.08;98154.66;5014099;28;1080;-77
2023/09/20 10:00:10;;;;;;;;;;;;;;;21.29;29.87;98157.66;4989012;28;1230;-77
2023/09/20 10:02:40;;;;;;;;;;;;;;;21.63;29.46;98165.00;5004903;28;1012;-77
2023/09/20 10:05:07;;;;;;;;;;;;;;;21.62;29.28;98161.38;5020625;28;1130;-77
2023/09/20 10:07:36;;;;;;;;;;;;;;;21.60;29.21;98161.00;4981356;28;1977;-77
2023/09/20 10:10:08;;;;;;;;;;;;;;;21.57;29.48;98159.84;5000647;28;1386;-77
2023/09/20 10:12:35;;;;;;;;;;;;;;;21.25;29.97;98151.31;5000527;28;964;-77
2023/09/20 10:15:01;;;;;;;;;;;;;;;21.09;30.55;98149.22;4960656;28;1602;-77
2023/09/20 10:17:28;;;;;;;;;;;;;;;21.29;30.08;98147.13;4977976;28;1022;-76
2023/09/20 10:19:54;;;;;;;;;;;;;;;21.62;29.51;98150.03;4945123;28;911;-76
2023/09/20 10:22:23;;;;;;;;;;;;;;;21.56;29.54;98149.78;4942892;28;1124;-77
2023/09/20 10:24:53;;;;;;;;;;;;;;;21.22;29.97;98147.31;4942848;28;1093;-77
2023/09/20 10:27:20;;;;;;;;;;;;;;;21.48;30.01;98145.50;4943357;29;1914;-77
2023/09/20 10:30:11;;;;;;;;;;;;;;;21.15;30.23;98136.16;4942715;28;977;-77
2023/09/20 10:32:38;;;;;;;;;;;;;;;21.52;29.72;98136.94;4943186;29;1052;-77
2023/09/20 10:35:19;;;;;;;;;;;;;;;21.19;30.21;98141.72;4942362;28;1201;-76
2023/09/20 10:38:08;;;;;;;;;;;;;;;21.30;30.01;98134.63;4942429;29;932;-77
2023/09/20 10:40:45;;;;;;;;;;;;;;;21.21;30.46;98137.22;4914035;29;1219;-77
2023/09/20 10:43:34;;;;;;;;;;;;;;;21.64;29.47;98139.06;4910831;29;1212;-77
2023/09/20 10:46:00;;;;;;;;;;;;;;;21.71;29.67;98138.91;4909027;29;1976;-77
2023/09/20 10:48:28;;;;;;;;;;;;;;;21.50;29.76;98134.56;4923149;29;1024;-77
2023/09/20 10:50:57;;;;;;;;;;;;;;;21.74;29.22;98137.22;4938663;29;1048;-77
2023/09/20 10:53:41;;;;;;;;;;;;;;;21.58;29.41;98135.16;4938714;29;1004;-77
2023/09/20 10:56:08;;;;;;;;;;;;;;;21.44;30.15;98135.50;4922817;29;1211;-77
2023/09/20 10:58:34;;;;;;;;;;;;;;;21.36;30.31;98139.75;4938819;29;1114;-77
2023/09/20 11:01:03;;;;;;;;;;;;;;;21.68;29.58;98136.94;4938508;29;1045;-77
2023/09/20 11:03:29;;;;;;;;;;;;;;;21.03;30.90;98139.63;4938396;29;1083;-77
2023/09/20 11:05:55;;;;;;;;;;;;;;;21.07;30.55;98134.72;4938731;29;1911;-77
2023/09/20 11:08:23;;;;;;;;;;;;;;;21.43;30.23;98134.72;4919375;29;1047;-77
2023/09/20 11:10:49;;;;;;;;;;;;;;;21.38;30.07;98132.41;4919039;29;1221;-77
2023/09/20 11:13:15;;;;;;;;;;;;;;;21.47;30.12;98134.63;4919283;29;978;-77
2023/09/20 11:15:43;;;;;;;;;;;;;;;21.54;29.88;98137.28;4919324;29;1023;-77
2023/09/20 11:18:09;;;;;;;;;;;;;;;21.47;30.15;98134.63;4933739;29;1033;-77
2023/09/20 11:20:34;;;;;;;;;;;;;;;21.72;29.36;98134.81;4938888;29;968;-77
2023/09/20 11:23:03;;;;;;;;;;;;;;;21.73;29.70;98136.41;4977936;28;1028;-77
2023/09/20 11:25:29;;;;;;;;;;;;;;;21.68;29.79;98145.44;5015982;28;1914;-77
2023/09/20 11:27:58;;;;;;;;;;;;;;;21.46;30.15;98138.72;5015505;28;922;-77
2023/09/20 11:30:27;;;;;;;;;;;;;;;21.57;29.54;98139.25;4999216;28;997;-78
2023/09/20 11:32:53;;;;;;;;;;;;;;;21.56;29.81;98132.00;5015791;28;971;-77
2023/09/20 11:35:34;;;;;;;;;;;;;;;21.22;30.28;98135.97;5015677;28;1000;-77
2023/09/20 11:38:01;;;;;;;;;;;;;;;21.63;29.72;98137.47;5015481;28;901;-77
2023/09/20 11:40:26;;;;;;;;;;;;;;;21.36;30.35;98134.09;5036382;28;1519;-77
2023/09/20 11:42:52;;;;;;;;;;;;;;;21.45;30.14;98131.44;5047762;28;1086;-77
2023/09/20 11:45:18;;;;;;;;;;;;;;;21.61;29.72;98117.31;5039271;28;1902;-77
2023/09/20 11:47:44;;;;;;;;;;;;;;;21.43;30.17;98119.78;5056485;28;881;-77
2023/09/20 11:50:13;;;;;;;;;;;;;;;21.57;29.70;98122.25;5039406;28;931;-77
2023/09/20 11:52:45;;;;;;;;;;;;;;;21.62;29.59;98107.56;5057029;28;940;-77
2023/09/20 11:55:11;;;;;;;;;;;;;;;21.44;30.12;98108.00;5055723;28;923;-77
2023/09/20 11:57:36;;;;;;;;;;;;;;;21.46;29.92;98104.75;5035040;28;1000;-76
2023/09/20 12:00:03;;;;;;;;;;;;;;;21.67;29.72;98109.06;5018901;28;1066;-76
2023/09/20 12:02:38;;;;;;;;;;;;;;;21.55;29.92;98102.06;5019326;28;1090;-78
2023/09/20 12:05:04;;;;;;;;;;;;;;;21.56;29.73;98110.13;5014771;28;1128;-78
2023/09/20 12:07:29;;;;;;;;;;;;;;;21.54;29.87;98106.16;4998896;28;1890;-77
2023/09/20 12:09:55;;;;;;;;;;;;;;;21.38;30.33;98108.97;4982573;28;1226;-77
2023/09/20 12:12:20;;;;;;;;;;;;;;;21.33;30.34;98113.91;4998385;28;1028;-77
2023/09/20 12:14:46;;;;;;;;;;;;;;;21.63;29.75;98103.50;5014489;28;946;-77
2023/09/20 12:17:12;;;;;;;;;;;;;;;21.50;30.04;98099.75;4998329;28;1011;-77
2023/09/20 12:19:37;;;;;;;;;;;;;;;21.25;30.23;98101.16;4998862;28;1093;-77
2023/09/20 12:22:03;;;;;;;;;;;;;;;21.24;30.41;98088.25;4998403;28;1296;-77
2023/09/20 12:24:28;;;;;;;;;;;;;;;21.42;30.21;98087.84;5014697;28;972;-78
2023/09/20 12:26:56;;;;;;;;;;;;;;;21.29;30.13;98095.38;4982281;28;1910;-77
2023/09/20 12:29:21;;;;;;;;;;;;;;;21.17;30.42;98088.41;4955921;28;1619;-77
2023/09/20 12:31:49;;;;;;;;;;;;;;;21.73;29.58;98095.97;4975629;28;981;-77
2023/09/20 12:34:16;;;;;;;;;;;;;;;21.83;29.79;98092.88;4975515;28;1238;-77
2023/09/20 12:36:42;;;;;;;;;;;;;;;21.78;29.51;98101.91;4959661;28;1061;-77
2023/09/20 12:39:10;;;;;;;;;;;;;;;21.78;29.53;98087.72;4975298;28;927;-78
2023/09/20 12:41:37;;;;;;;;;;;;;;;21.67;29.83;98092.09;4959676;28;922;-76
2023/09/20 12:44:04;;;;;;;;;;;;;;;21.59;29.77;98091.47;4959363;28;1139;-77
2023/09/20 12:46:31;;;;;;;;;;;;;;;21.52;30.16;98091.66;4971739;28;1971;-77
2023/09/20 12:48:57;;;;;;;;;;;;;;;21.57;29.94;98093.94;4956132;28;988;-77
2023/09/20 12:51:24;;;;;;;;;;;;;;;21.43;29.93;98083.75;4940050;29;1162;-77
2023/09/20 12:53:50;;;;;;;;;;;;;;;21.42;30.19;98084.22;4972115;28;1578;-77
2023/09/20 12:56:16;;;;;;;;;;;;;;;21.56;29.82;98086.69;4940307;28;1002;-77
2023/09/20 12:58:41;;;;;;;;;;;;;;;21.50;29.80;98082.78;4940410;29;1004;-77
2023/09/20 13:01:10;;;;;;;;;;;;;;;21.38;29.96;98075.00;4988848;28;1001;-77
2023/09/20 13:03:40;;;;;;;;;;;;;;;21.32;30.42;98077.56;5014288;28;2041;-77
2023/09/20 13:06:07;;;;;;;;;;;;;;;21.62;29.64;98073.59;4998115;28;1981;-77
2023/09/20 13:08:32;;;;;;;;;;;;;;;21.66;29.52;98079.97;5014473;28;946;-77
2023/09/20 13:10:58;;;;;;;;;;;;;;;21.77;29.45;98062.69;5014418;28;944;-77
2023/09/20 13:13:23;;;;;;;;;;;;;;;21.91;29.07;98055.84;4998096;28;1101;-77
2023/09/20 13:15:50;;;;;;;;;;;;;;;21.84;29.45;98057.63;5014392;28;1117;-77
2023/09/20 13:18:16;;;;;;;;;;;;;;;21.68;29.64;98054.81;5018602;28;912;-77
2023/09/20 13:20:42;;;;;;;;;;;;;;;21.78;29.46;98050.91;5002125;28;985;-77
2023/09/20 13:23:07;;;;;;;;;;;;;;;21.72;29.51;98061.19;5001973;28;1187;-76
2023/09/20 13:25:33;;;;;;;;;;;;;;;21.62;29.92;98070.75;5022277;28;1906;-77
2023/09/20 13:27:59;;;;;;;;;;;;;;;21.48;29.78;98063.41;5006363;28;884;-77
2023/09/20 13:30:26;;;;;;;;;;;;;;;21.59;29.49;98058.28;5022594;28;898;-77
2023/09/20 13:32:52;;;;;;;;;;;;;;;21.47;29.97;98061.03;5006124;28;956;-77
2023/09/20 13:35:18;;;;;;;;;;;;;;;21.42;29.92;98070.84;5001438;28;1147;-77
2023/09/20 13:37:47;;;;;;;;;;;;;;;21.38;30.01;98063.69;5001608;28;977;-77
2023/09/20 13:40:13;;;;;;;;;;;;;;;21.63;29.61;98063.84;5017842;28;1023;-78
2023/09/20 13:42:42;;;;;;;;;;;;;;;21.19;30.49;98063.31;5017790;28;1298;-77